Time;durP1;ratioP1;P1;durP2;ratioP2;P2;SDS_P1;SDS_P2;PMS_P1;PMS_P2;Temp;Humidity;BMP_temperature;BMP_pressure;BME280_temperature;BME280_humidity;BME280_pressure;Samples;Min_cycle;Max_cycle;Signal;HPM_P1;HPM_P2
2022/05/10 00:00:55;;;;;;;4.90;2.53;;;10.90;1.00;;;;;;5113631;28;20714;-81
2022/05/10 00:03:24;;;;;;;5.57;2.23;;;10.80;1.00;;;;;;5114124;28;20224;-81
2022/05/10 00:05:51;;;;;;;4.27;2.20;;;10.80;1.00;;;;;;5099590;28;20290;-81
2022/05/10 00:08:19;;;;;;;5.67;2.47;;;10.80;1.00;;;;;;5093040;28;20219;-82
2022/05/10 00:10:47;;;;;;;5.13;2.53;;;10.80;1.00;;;;;;5093345;28;20288;-82
2022/05/10 00:13:15;;;;;;;4.73;2.63;;;10.80;1.00;;;;;;5092413;28;20657;-83
2022/05/10 00:15:43;;;;;;;3.77;2.60;;;10.80;1.00;;;;;;5093246;28;20227;-83
2022/05/10 00:18:14;;;;;;;6.67;2.47;;;10.80;1.00;;;;;;5093032;28;20234;-84
2022/05/10 00:20:42;;;;;;;9.07;3.40;;;10.80;1.00;;;;;;5093012;28;20224;-83
2022/05/10 00:23:09;;;;;;;11.57;2.97;;;10.80;1.00;;;;;;5092898;28;20196;-83
2022/05/10 00:25:38;;;;;;;6.57;2.63;;;10.80;1.00;;;;;;5094946;28;20210;-82
2022/05/10 00:28:07;;;;;;;6.23;2.60;;;10.90;1.00;;;;;;5092582;28;20282;-82
2022/05/10 00:30:34;;;;;;;5.37;2.53;;;10.90;1.00;;;;;;5092892;28;20238;-82
2022/05/10 00:33:01;;;;;;;4.00;2.43;;;10.90;1.00;;;;;;5092467;28;20609;-83
2022/05/10 00:35:31;;;;;;;7.20;3.33;;;10.90;1.00;;;;;;5092440;28;20229;-83
2022/05/10 00:38:00;;;;;;;10.33;5.33;;;11.00;1.00;;;;;;5092865;28;20231;-83
2022/05/10 00:40:30;;;;;;;4.37;3.13;;;11.00;1.00;;;;;;5092450;28;20194;-83
2022/05/10 00:43:03;;;;;;;9.13;3.50;;;11.00;1.00;;;;;;5092883;28;20203;-84
2022/05/10 00:45:39;;;;;;;5.97;2.63;;;11.00;1.00;;;;;;5092873;28;20207;-83
2022/05/10 00:48:14;;;;;;;7.00;2.90;;;11.00;1.00;;;;;;5092604;28;20217;-83
2022/05/10 00:50:47;;;;;;;5.97;2.87;;;11.00;1.00;;;;;;5092762;28;20269;-83
2022/05/10 00:53:18;;;;;;;4.87;2.83;;;11.00;1.00;;;;;;5092823;28;20312;-84
2022/05/10 00:55:51;;;;;;;7.80;3.57;;;11.00;1.00;;;;;;5095193;28;20185;-83
2022/05/10 00:58:26;;;;;;;6.83;4.27;;;11.00;1.00;;;;;;5092568;28;20392;-83
2022/05/10 01:00:56;;;;;;;7.70;3.27;;;11.00;1.00;;;;;;5092928;28;20187;-84
2022/05/10 01:03:27;;;;;;;6.20;2.60;;;11.00;1.00;;;;;;5092494;28;20205;-83
2022/05/10 01:06:02;;;;;;;8.47;2.80;;;11.00;1.00;;;;;;5092449;28;20681;-82
2022/05/10 01:08:36;;;;;;;7.33;2.90;;;10.90;1.00;;;;;;5093168;28;20575;-82
2022/05/10 01:11:07;;;;;;;7.37;2.60;;;10.90;1.00;;;;;;5092483;28;20207;-82
2022/05/10 01:13:41;;;;;;;5.07;2.77;;;10.80;1.00;;;;;;5092503;28;20273;-82
2022/05/10 01:16:12;;;;;;;5.53;3.00;;;10.80;1.00;;;;;;5097069;28;20211;-84
2022/05/10 01:18:40;;;;;;;8.17;3.10;;;10.80;1.00;;;;;;5112780;28;20268;-83
2022/05/10 01:21:38;;;;;;;5.03;2.80;;;10.70;1.00;;;;;;5112664;28;20283;-83
2022/05/10 01:24:38;;;;;;;5.17;2.60;;;10.70;1.00;;;;;;5092235;28;20621;-82
2022/05/10 01:27:32;;;;;;;5.73;2.87;;;10.70;1.00;;;;;;5116347;28;20234;-84
2022/05/10 01:30:04;;;;;;;8.23;3.10;;;10.70;1.00;;;;;;5116478;28;20532;-82
2022/05/10 01:35:25;;;;;;;5.37;3.10;;;10.60;1.00;;;;;;5116304;28;20209;-82
2022/05/10 01:37:55;;;;;;;4.77;2.93;;;10.70;1.00;;;;;;5116704;28;20232;-83
2022/05/10 01:40:30;;;;;;;5.30;3.20;;;10.60;1.00;;;;;;5116770;28;20195;-82
2022/05/10 01:43:03;;;;;;;5.67;2.97;;;10.60;1.00;;;;;;5116507;28;20185;-82
2022/05/10 01:45:35;;;;;;;7.30;3.13;;;10.60;1.00;;;;;;5116471;28;20196;-82
2022/05/10 01:48:04;;;;;;;4.53;3.00;;;10.50;1.00;;;;;;5095318;28;20668;-82
2022/05/10 01:50:38;;;;;;;7.27;3.20;;;10.50;1.00;;;;;;5095491;28;20231;-82
2022/05/10 01:53:07;;;;;;;5.63;2.97;;;10.50;1.00;;;;;;5096288;28;20259;-83
2022/05/10 01:55:37;;;;;;;10.70;3.73;;;10.40;1.00;;;;;;5096091;28;20216;-82
2022/05/10 01:58:09;;;;;;;7.33;4.13;;;10.40;1.00;;;;;;5095415;28;20189;-82
2022/05/10 02:00:39;;;;;;;6.97;4.73;;;10.40;1.00;;;;;;5095359;28;20670;-82
2022/05/10 02:03:15;;;;;;;9.27;4.73;;;10.40;1.00;;;;;;5095613;28;20200;-82
2022/05/10 02:05:51;;;;;;;15.77;6.10;;;10.40;1.00;;;;;;5095297;28;20685;-84
2022/05/10 02:08:27;;;;;;;16.10;8.53;;;10.30;1.00;;;;;;5095590;28;20274;-82
2022/05/10 02:10:58;;;;;;;15.03;7.63;;;10.30;1.00;;;;;;5095550;28;20269;-82
2022/05/10 02:13:30;;;;;;;11.77;4.60;;;10.20;1.00;;;;;;5095211;28;20218;-82
2022/05/10 02:16:01;;;;;;;7.87;4.13;;;10.10;1.00;;;;;;5100531;28;20247;-82
2022/05/10 02:18:34;;;;;;;5.63;3.80;;;10.10;1.00;;;;;;5105792;28;20276;-83
2022/05/10 02:21:09;;;;;;;8.43;4.10;;;10.00;1.00;;;;;;5095075;28;20266;-81
2022/05/10 02:23:42;;;;;;;7.60;3.83;;;10.00;1.00;;;;;;5095376;28;20271;-82
2022/05/10 02:26:13;;;;;;;8.37;3.47;;;9.90;1.00;;;;;;5095214;28;20228;-81
2022/05/10 02:28:46;;;;;;;4.67;3.37;;;9.80;1.00;;;;;;5094896;28;20266;-82
2022/05/10 02:31:20;;;;;;;7.13;3.20;;;9.90;1.00;;;;;;5095265;28;20219;-83
2022/05/10 02:33:47;;;;;;;6.63;3.03;;;9.80;1.00;;;;;;5094786;28;20184;-82
2022/05/10 02:36:14;;;;;;;5.97;3.20;;;9.80;1.00;;;;;;5094129;28;20223;-82
2022/05/10 02:38:42;;;;;;;7.73;3.40;;;9.70;1.00;;;;;;5094662;28;20286;-82
2022/05/10 02:41:12;;;;;;;5.20;3.27;;;9.70;1.00;;;;;;5094984;28;20189;-83
2022/05/10 02:43:44;;;;;;;7.27;3.20;;;9.70;1.00;;;;;;5094657;28;20270;-82
2022/05/10 02:46:11;;;;;;;7.27;3.30;;;9.70;1.00;;;;;;5101312;28;20222;-82
2022/05/10 02:48:40;;;;;;;8.80;3.30;;;9.60;1.00;;;;;;5114818;28;20230;-82
2022/05/10 02:51:07;;;;;;;8.23;3.23;;;9.60;1.00;;;;;;5115125;28;20229;-82
2022/05/10 02:53:34;;;;;;;6.77;2.80;;;9.60;1.00;;;;;;5115093;28;20205;-83
2022/05/10 02:56:04;;;;;;;6.27;3.13;;;9.60;1.00;;;;;;5114797;28;20247;-82
2022/05/10 02:58:34;;;;;;;5.67;3.20;;;9.50;1.00;;;;;;5115107;28;20233;-82
2022/05/10 03:01:07;;;;;;;7.33;3.20;;;9.50;1.00;;;;;;5115264;28;20229;-83
2022/05/10 03:03:35;;;;;;;6.23;2.80;;;9.50;1.00;;;;;;5115087;28;20200;-82
2022/05/10 03:06:04;;;;;;;9.43;3.00;;;9.50;1.00;;;;;;5115084;28;20286;-83
2022/05/10 03:08:31;;;;;;;4.53;2.73;;;9.50;1.00;;;;;;5114964;28;20278;-83
2022/05/10 03:10:58;;;;;;;6.33;2.83;;;9.50;1.00;;;;;;5114662;28;20283;-83
2022/05/10 03:13:34;;;;;;;8.00;2.93;;;9.50;1.00;;;;;;5127942;28;20175;-84
2022/05/10 03:16:01;;;;;;;7.60;3.07;;;9.50;1.00;;;;;;5115278;28;20215;-85
2022/05/10 03:18:28;;;;;;;4.93;2.77;;;9.60;1.00;;;;;;5097709;28;20229;-84
2022/05/10 03:20:55;;;;;;;6.00;3.20;;;9.50;1.00;;;;;;5093803;28;20237;-83
2022/05/10 03:23:23;;;;;;;4.23;2.63;;;9.60;1.00;;;;;;5093986;28;20225;-83
2022/05/10 03:25:50;;;;;;;5.30;2.70;;;9.60;1.00;;;;;;5094797;28;20296;-83
2022/05/10 03:28:17;;;;;;;7.53;2.90;;;9.60;1.00;;;;;;5094162;28;20234;-82
2022/05/10 03:30:44;;;;;;;8.20;3.10;;;9.60;1.00;;;;;;5099391;28;20202;-84
2022/05/10 03:33:11;;;;;;;6.80;3.37;;;9.70;1.00;;;;;;5102245;28;20220;-85
2022/05/10 03:35:38;;;;;;;9.27;2.80;;;9.70;1.00;;;;;;5100552;28;20217;-83
2022/05/10 03:38:18;;;;;;;8.53;3.53;;;9.60;1.00;;;;;;5116829;28;20193;-83
2022/05/10 03:40:46;;;;;;;8.67;3.20;;;9.50;1.00;;;;;;5114546;28;20215;-84
2022/05/10 03:43:13;;;;;;;5.63;2.80;;;9.50;1.00;;;;;;5115767;28;20274;-84
2022/05/10 03:45:40;;;;;;;6.60;3.20;;;9.40;1.00;;;;;;5114910;28;20285;-83
2022/05/10 03:48:08;;;;;;;5.90;3.27;;;9.30;1.00;;;;;;5118846;28;20225;-83
2022/05/10 03:50:35;;;;;;;5.60;2.80;;;9.20;1.00;;;;;;5116097;28;20197;-83
2022/05/10 03:53:02;;;;;;;8.90;7.17;;;9.10;1.00;;;;;;5114187;28;20276;-82
2022/05/10 03:55:30;;;;;;;9.23;7.60;;;9.10;1.00;;;;;;5105437;28;20298;-82
2022/05/10 03:57:58;;;;;;;5.40;3.63;;;9.00;1.00;;;;;;5093322;28;20653;-83
2022/05/10 04:00:28;;;;;;;5.63;3.40;;;9.00;1.00;;;;;;5093093;28;20282;-83
2022/05/10 04:02:56;;;;;;;4.83;2.93;;;9.00;1.00;;;;;;5093308;28;20230;-82
2022/05/10 04:05:24;;;;;;;7.00;3.03;;;9.10;1.00;;;;;;5092941;28;20202;-81
2022/05/10 04:08:06;;;;;;;6.13;3.13;;;9.20;1.00;;;;;;5113343;28;20197;-86
2022/05/10 04:10:46;;;;;;;5.07;2.90;;;9.90;1.00;;;;;;5117347;28;20194;-87
2022/05/10 04:13:31;;;;;;;7.40;2.93;;;11.10;1.00;;;;;;5116750;28;20187;-85
2022/05/10 04:16:14;;;;;;;14.97;3.40;;;12.60;1.00;;;;;;5131483;28;20272;-87
2022/05/10 04:18:53;;;;;;;13.90;3.20;;;14.00;1.00;;;;;;5136683;28;20215;-87
2022/05/10 04:21:25;;;;;;;6.38;3.00;;;15.30;1.00;;;;;;5136980;28;20195;-88
2022/05/10 04:24:07;;;;;;;5.97;2.80;;;16.60;1.00;;;;;;5125902;28;20253;-86
2022/05/10 04:26:45;;;;;;;4.35;3.00;;;17.70;1.00;;;;;;5123872;28;20179;-86
2022/05/10 04:32:29;;;;;;;6.93;2.92;;;19.60;1.00;;;;;;5136967;28;20287;-88
2022/05/10 04:35:15;;;;;;;5.07;2.72;;;20.60;1.00;;;;;;5136811;28;20187;-88
2022/05/10 04:37:53;;;;;;;5.70;2.80;;;21.30;1.00;;;;;;5133820;28;20187;-88
2022/05/10 04:43:21;;;;;;;8.00;3.08;;;23.00;1.00;;;;;;5137717;28;20180;-87
2022/05/10 04:45:56;;;;;;;6.95;2.80;;;23.90;1.00;;;;;;5115981;28;20183;-88
2022/05/10 04:48:39;;;;;;;6.47;2.80;;;24.40;1.00;;;;;;5115942;28;20175;-87
2022/05/10 04:57:14;;;;;;;10.15;3.05;;;25.70;1.00;;;;;;5074009;28;20182;-85
2022/05/10 04:59:49;;;;;;;7.18;2.88;;;26.00;1.00;;;;;;5081841;28;20192;-84
2022/05/10 05:02:31;;;;;;;10.57;3.60;;;26.50;1.00;;;;;;5082169;28;20222;-87
2022/05/10 05:05:14;;;;;;;10.20;4.13;;;27.10;1.00;;;;;;5101877;28;20179;-84
2022/05/10 05:07:54;;;;;;;7.13;3.35;;;27.40;1.00;;;;;;5097598;28;20203;-85
2022/05/10 05:10:30;;;;;;;8.10;3.28;;;27.50;1.00;;;;;;5082161;28;20193;-88
2022/05/10 05:13:06;;;;;;;10.70;3.88;;;27.90;1.00;;;;;;5082368;28;20181;-85
2022/05/10 05:15:47;;;;;;;9.73;3.88;;;28.10;1.00;;;;;;5082257;28;20169;-86
2022/05/10 05:21:08;;;;;;;6.10;2.90;;;28.70;1.00;;;;;;5080253;28;20193;-86
2022/05/10 05:23:40;;;;;;;12.57;3.70;;;28.80;1.00;;;;;;5082816;28;20325;-85
2022/05/10 05:26:07;;;;;;;20.38;3.97;;;28.90;1.00;;;;;;5061612;28;20239;-84
2022/05/10 05:28:34;;;;;;;14.20;3.88;;;29.20;1.00;;;;;;5058777;28;20188;-82
2022/05/10 05:31:02;;;;;;;6.45;3.78;;;29.60;1.00;;;;;;5058464;28;20669;-81
2022/05/10 05:33:31;;;;;;;8.77;3.53;;;29.90;1.00;;;;;;5065229;28;20169;-84
2022/05/10 05:35:58;;;;;;;11.38;3.13;;;30.10;1.00;;;;;;5078405;28;20232;-82
2022/05/10 05:38:26;;;;;;;10.90;3.65;;;30.30;1.00;;;;;;5078674;28;20223;-83
2022/05/10 05:40:53;;;;;;;6.13;3.22;;;30.60;1.00;;;;;;5078358;28;20194;-82
2022/05/10 05:43:22;;;;;;;8.52;3.35;;;30.80;1.00;;;;;;5078688;28;20337;-84
2022/05/10 05:45:49;;;;;;;8.63;3.25;;;31.10;1.00;;;;;;5078285;28;20739;-81
2022/05/10 05:48:17;;;;;;;6.22;3.08;;;31.30;1.00;;;;;;5078538;28;20246;-82
2022/05/10 05:50:45;;;;;;;6.25;3.15;;;31.50;1.00;;;;;;5078742;28;20275;-83
2022/05/10 05:53:12;;;;;;;6.97;3.00;;;31.80;1.00;;;;;;5112579;28;20260;-81
2022/05/10 05:55:41;;;;;;;6.70;2.80;;;31.90;1.00;;;;;;5119171;28;20792;-81
2022/05/10 05:58:10;;;;;;;16.95;3.90;;;32.00;1.00;;;;;;5119394;28;20193;-81
2022/05/10 06:00:38;;;;;;;8.98;3.17;;;32.30;1.00;;;;;;5119419;28;20195;-81
2022/05/10 06:03:06;;;;;;;5.00;3.17;;;32.50;1.00;;;;;;5112686;28;20708;-82
2022/05/10 06:05:33;;;;;;;7.18;3.20;;;32.50;1.00;;;;;;5098546;28;20286;-81
2022/05/10 06:08:03;;;;;;;8.65;3.30;;;32.60;1.00;;;;;;5098689;28;20202;-82
2022/05/10 06:10:30;;;;;;;7.75;3.42;;;32.70;1.00;;;;;;5095640;28;20584;-82
2022/05/10 06:13:00;;;;;;;5.50;3.20;;;32.70;1.00;;;;;;5095072;28;20690;-82
2022/05/10 06:15:27;;;;;;;5.47;3.00;;;32.80;1.00;;;;;;5095474;28;20282;-81
2022/05/10 06:17:56;;;;;;;6.68;3.10;;;33.00;1.00;;;;;;5095485;28;20281;-81
2022/05/10 06:20:24;;;;;;;5.90;2.90;;;33.10;1.00;;;;;;5095421;28;20199;-81
2022/05/10 06:22:51;;;;;;;6.20;3.40;;;33.20;1.00;;;;;;5095331;28;20200;-81
2022/05/10 06:25:22;;;;;;;5.88;3.15;;;33.00;1.00;;;;;;5095159;28;20195;-84
2022/05/10 06:27:50;;;;;;;11.27;3.30;;;32.90;1.00;;;;;;5094987;28;20294;-83
2022/05/10 06:30:18;;;;;;;8.77;3.15;;;32.80;1.00;;;;;;5094794;28;20283;-84
2022/05/10 06:32:46;;;;;;;4.90;2.90;;;32.70;1.00;;;;;;5097738;28;20211;-81
2022/05/10 06:35:13;;;;;;;5.57;2.83;;;32.50;1.00;;;;;;5114971;28;20240;-81
2022/05/10 06:40:25;;;;;;;5.05;2.80;;;32.30;1.00;;;;;;5115180;28;20261;-81
2022/05/10 06:42:53;;;;;;;6.25;3.00;;;32.20;1.00;;;;;;5115414;28;20201;-81
2022/05/10 06:45:20;;;;;;;6.32;3.30;;;32.40;1.00;;;;;;5114879;28;20277;-81
2022/05/10 06:47:49;;;;;;;5.63;3.30;;;32.50;1.00;;;;;;5115169;28;20347;-84
2022/05/10 06:50:19;;;;;;;5.22;3.40;;;32.50;1.00;;;;;;5115330;28;20247;-83
2022/05/10 06:52:46;;;;;;;6.93;3.53;;;32.40;1.00;;;;;;5114949;28;20309;-84
2022/05/10 06:55:13;;;;;;;5.95;3.10;;;32.40;1.00;;;;;;5114702;28;20190;-83
2022/05/10 06:57:44;;;;;;;12.68;4.20;;;32.60;1.00;;;;;;5136335;28;20194;-85
2022/05/10 07:00:17;;;;;;;8.65;3.22;;;32.70;1.00;;;;;;5139218;28;20207;-88
2022/05/10 07:02:43;;;;;;;4.75;3.13;;;32.90;1.00;;;;;;5109338;28;20529;-83
2022/05/10 07:05:12;;;;;;;30.50;26.45;;;33.00;1.00;;;;;;5094689;28;20277;-82
2022/05/10 07:07:39;;;;;;;20.48;18.38;;;33.20;1.00;;;;;;5094318;28;20775;-83
2022/05/10 07:10:08;;;;;;;6.07;4.90;;;33.30;1.00;;;;;;5094544;28;20226;-83
2022/05/10 07:12:35;;;;;;;7.82;5.75;;;33.40;1.00;;;;;;5093964;28;20283;-84
2022/05/10 07:15:05;;;;;;;8.27;4.15;;;33.70;1.00;;;;;;5094081;28;20218;-84
2022/05/10 07:17:31;;;;;;;8.15;5.80;;;33.60;1.00;;;;;;5093900;28;20282;-83
2022/05/10 07:19:58;;;;;;;10.85;5.88;;;33.40;1.00;;;;;;5093814;28;20226;-85
2022/05/10 07:22:25;;;;;;;32.90;29.40;;;33.50;1.00;;;;;;5092725;28;20226;-83
2022/05/10 07:24:52;;;;;;;7.75;3.90;;;33.60;1.00;;;;;;5094106;28;20646;-83
2022/05/10 07:27:19;;;;;;;14.18;3.78;;;34.00;1.00;;;;;;5094029;28;20295;-83
2022/05/10 07:29:46;;;;;;;11.63;3.65;;;34.50;1.00;;;;;;5093838;28;20601;-83
2022/05/10 07:32:15;;;;;;;5.68;3.35;;;34.70;1.00;;;;;;5094463;28;20197;-83
2022/05/10 07:34:42;;;;;;;8.25;3.28;;;34.70;1.00;;;;;;5094111;28;20191;-83
2022/05/10 07:37:09;;;;;;;8.27;3.00;;;34.80;1.00;;;;;;5093663;28;20198;-85
2022/05/10 07:39:36;;;;;;;5.32;3.08;;;34.80;1.00;;;;;;5093473;28;20631;-83
2022/05/10 07:42:04;;;;;;;5.90;3.30;;;34.70;1.00;;;;;;5093451;28;20199;-82
2022/05/10 07:44:31;;;;;;;5.20;2.97;;;34.60;1.00;;;;;;5093743;28;20194;-83
2022/05/10 07:46:58;;;;;;;8.13;3.28;;;34.30;1.00;;;;;;5093294;28;20564;-83
2022/05/10 07:49:27;;;;;;;7.75;3.33;;;34.30;1.00;;;;;;5093547;28;20222;-83
2022/05/10 07:51:54;;;;;;;7.05;3.15;;;34.00;1.00;;;;;;5093191;28;20261;-84
2022/05/10 07:54:21;;;;;;;7.72;3.50;;;33.60;1.00;;;;;;5093317;28;20666;-84
2022/05/10 07:56:48;;;;;;;7.07;3.92;;;33.60;1.00;;;;;;5093577;28;20263;-83
2022/05/10 07:59:15;;;;;;;7.05;3.40;;;34.00;1.00;;;;;;5093478;28;20240;-83
2022/05/10 08:01:42;;;;;;;8.20;2.92;;;34.00;1.00;;;;;;5093635;28;20293;-83
2022/05/10 08:04:09;;;;;;;6.15;3.55;;;34.10;1.00;;;;;;5112175;28;20549;-83
2022/05/10 08:06:38;;;;;;;8.00;3.78;;;34.10;1.00;;;;;;5113259;28;20218;-83
2022/05/10 08:09:05;;;;;;;9.70;3.10;;;34.00;1.00;;;;;;5113393;28;20722;-84
2022/05/10 08:11:32;;;;;;;7.13;3.40;;;33.80;1.00;;;;;;5113168;28;20197;-84
2022/05/10 08:13:58;;;;;;;12.65;3.20;;;33.90;1.00;;;;;;5113220;28;20281;-83
2022/05/10 08:16:31;;;;;;;6.93;3.00;;;33.90;1.00;;;;;;5113500;28;20255;-82
2022/05/10 08:18:57;;;;;;;6.03;3.13;;;34.10;1.00;;;;;;5113288;28;20182;-82
2022/05/10 08:21:25;;;;;;;4.53;3.22;;;34.20;1.00;;;;;;5113126;28;20197;-85
2022/05/10 08:23:55;;;;;;;6.22;3.22;;;34.00;1.00;;;;;;5113427;28;20187;-83
2022/05/10 08:26:22;;;;;;;7.10;3.10;;;34.00;1.00;;;;;;5112962;28;20676;-84
2022/05/10 08:28:49;;;;;;;6.63;3.40;;;34.00;1.00;;;;;;5113257;28;20192;-83
2022/05/10 08:31:16;;;;;;;7.05;3.35;;;33.90;1.00;;;;;;5113461;28;20213;-83
2022/05/10 08:33:45;;;;;;;6.80;2.80;;;33.80;1.00;;;;;;5097363;28;20273;-83
2022/05/10 08:36:12;;;;;;;5.97;2.88;;;33.80;1.00;;;;;;5093158;28;20253;-84
2022/05/10 08:38:39;;;;;;;7.55;2.90;;;33.90;1.00;;;;;;5092355;28;20201;-82
2022/05/10 08:41:15;;;;;;;11.77;3.20;;;34.00;1.00;;;;;;5100051;28;20217;-83
2022/05/10 08:43:46;;;;;;;6.53;2.97;;;34.10;1.00;;;;;;5113113;28;20178;-85
2022/05/10 08:46:16;;;;;;;6.40;2.83;;;34.30;1.00;;;;;;5113137;28;20183;-83
2022/05/10 08:48:45;;;;;;;5.60;2.90;;;34.40;1.00;;;;;;5113196;28;20193;-83
2022/05/10 08:51:12;;;;;;;4.47;3.22;;;34.40;1.00;;;;;;5113078;28;20201;-82
2022/05/10 08:53:39;;;;;;;4.47;3.00;;;34.50;1.00;;;;;;5113280;28;20714;-84
2022/05/10 08:56:16;;;;;;;4.63;2.40;;;34.70;1.00;;;;;;5113059;28;20197;-85
2022/05/10 08:59:02;;;;;;;9.27;4.30;;;34.90;1.00;;;;;;5113316;28;20187;-82
2022/05/10 09:01:33;;;;;;;8.48;4.72;;;34.80;1.00;;;;;;5112872;28;20182;-83
2022/05/10 09:04:08;;;;;;;6.40;2.67;;;34.90;1.00;;;;;;5093357;28;20265;-83
2022/05/10 09:06:52;;;;;;;8.68;3.63;;;34.70;1.00;;;;;;5092376;28;20186;-85
2022/05/10 09:09:26;;;;;;;4.40;2.90;;;34.40;1.00;;;;;;5092415;28;20655;-83
2022/05/10 09:12:04;;;;;;;3.75;2.50;;;34.30;1.00;;;;;;5092189;28;20218;-82
2022/05/10 09:14:34;;;;;;;4.30;3.20;;;34.40;1.00;;;;;;5092621;28;20182;-83
2022/05/10 09:17:03;;;;;;;5.35;2.72;;;34.60;1.00;;;;;;5092208;28;20557;-83
2022/05/10 09:19:38;;;;;;;8.75;4.50;;;34.90;1.00;;;;;;5092447;28;20202;-84
2022/05/10 09:22:17;;;;;;;6.90;3.75;;;34.90;1.00;;;;;;5092441;28;20178;-83
2022/05/10 09:24:51;;;;;;;9.63;8.60;;;34.90;1.00;;;;;;5092795;28;20183;-82
2022/05/10 09:27:20;;;;;;;;;;;34.60;1.00;;;;;;5093143;28;20162;-82
2022/05/10 09:29:49;;;;;;;4.45;2.58;;;34.30;1.00;;;;;;5092192;28;20202;-81
2022/05/10 09:35:14;;;;;;;7.55;3.03;;;33.20;1.00;;;;;;5112485;28;20166;-83
2022/05/10 09:37:45;;;;;;;5.97;4.00;;;32.70;1.00;;;;;;5112714;28;20160;-82
2022/05/10 09:40:32;;;;;;;6.95;3.45;;;32.00;1.00;;;;;;5111461;28;20167;-82
2022/05/10 09:43:18;;;;;;;5.28;3.95;;;31.40;1.00;;;;;;5092269;28;20175;-81
2022/05/10 09:45:46;;;;;;;6.38;4.00;;;30.90;1.00;;;;;;5094371;28;20188;-84
2022/05/10 09:48:17;;;;;;;6.72;3.35;;;30.50;1.00;;;;;;5095569;28;20222;-82
2022/05/10 09:50:46;;;;;;;6.07;2.67;;;30.30;1.00;;;;;;5115726;28;20191;-83
2022/05/10 09:53:22;;;;;;;5.75;2.75;;;29.80;1.00;;;;;;5116373;28;20229;-82
2022/05/10 09:56:00;;;;;;;7.95;3.08;;;29.50;1.00;;;;;;5116329;28;20214;-81
2022/05/10 09:58:31;;;;;;;6.68;3.22;;;29.30;1.00;;;;;;5116299;28;20271;-81
2022/05/10 10:00:59;;;;;;;7.82;2.92;;;29.20;1.00;;;;;;5101805;28;20271;-81
2022/05/10 10:03:27;;;;;;;;;;;29.10;1.00;;;;;;5096215;28;20056;-81
2022/05/10 10:05:56;;;;;;;5.95;2.70;;;28.80;1.00;;;;;;5095836;28;20231;-82
2022/05/10 10:08:39;;;;;;;4.45;2.70;;;28.60;1.00;;;;;;5095655;28;20215;-81
2022/05/10 10:11:25;;;;;;;7.03;2.97;;;28.40;1.00;;;;;;5092982;28;20192;-82
2022/05/10 10:13:55;;;;;;;6.68;4.97;;;28.20;1.00;;;;;;5095528;28;20262;-82
2022/05/10 10:16:25;;;;;;;5.18;2.90;;;28.10;1.00;;;;;;5095147;28;20613;-81
2022/05/10 10:18:55;;;;;;;4.32;2.88;;;28.00;1.00;;;;;;5095065;28;20202;-82
2022/05/10 10:21:33;;;;;;;17.73;3.85;;;28.00;1.00;;;;;;5095291;28;20644;-81
2022/05/10 10:24:01;;;;;;;11.82;2.60;;;27.90;1.00;;;;;;5095430;28;20183;-81
2022/05/10 10:26:36;;;;;;;4.65;2.80;;;27.80;1.00;;;;;;5095304;28;20231;-82
2022/05/10 10:29:14;;;;;;;4.53;3.10;;;27.50;1.00;;;;;;5095263;28;20203;-81
2022/05/10 10:31:44;;;;;;;4.57;2.60;;;27.40;1.00;;;;;;5114804;28;20243;-81
2022/05/10 10:34:19;;;;;;;8.05;2.70;;;27.40;1.00;;;;;;5115559;28;20544;-81
2022/05/10 10:36:53;;;;;;;8.07;2.60;;;27.30;1.00;;;;;;5115726;28;20179;-81
2022/05/10 10:39:28;;;;;;;4.60;2.80;;;27.20;1.00;;;;;;5115219;28;20228;-82
2022/05/10 10:42:01;;;;;;;4.55;2.50;;;27.00;1.00;;;;;;5115013;28;20174;-82
2022/05/10 10:44:32;;;;;;;8.98;3.20;;;26.90;1.00;;;;;;5115391;28;20183;-81
2022/05/10 10:47:11;;;;;;;6.50;3.75;;;26.90;1.00;;;;;;5106301;28;20211;-81
2022/05/10 10:49:45;;;;;;;6.10;4.05;;;26.90;1.00;;;;;;5094861;28;20180;-83
2022/05/10 10:52:13;;;;;;;4.22;3.30;;;26.90;1.00;;;;;;5094845;28;20332;-82
2022/05/10 10:54:40;;;;;;;3.20;2.60;;;27.00;1.00;;;;;;5097288;28;20184;-83
2022/05/10 10:57:46;;;;;;;7.20;2.70;;;27.00;1.00;;;;;;5114694;28;20247;-82
2022/05/10 11:00:17;;;;;;;8.23;2.70;;;27.00;1.00;;;;;;5012333;28;20226;-82
2022/05/10 11:03:07;;;;;;;7.25;2.95;;;26.80;1.00;;;;;;5105595;28;20222;-86
2022/05/10 11:06:37;;;;;;;5.63;2.55;;;26.70;1.00;;;;;;5138032;28;20228;-86
2022/05/10 11:09:34;;;;;;;5.93;3.00;;;26.60;1.00;;;;;;5056200;28;20217;-87
2022/05/10 11:12:41;;;;;;;5.90;2.90;;;26.60;1.00;;;;;;5054595;28;20193;-85
2022/05/10 11:15:29;;;;;;;7.13;2.78;;;26.70;1.00;;;;;;5056470;28;20184;-86
2022/05/10 11:18:23;;;;;;;6.15;2.67;;;26.80;1.00;;;;;;5055834;28;20193;-86
2022/05/10 11:21:07;;;;;;;7.05;3.25;;;26.90;1.00;;;;;;5107999;28;20181;-84
2022/05/10 11:23:51;;;;;;;10.07;3.55;;;26.90;1.00;;;;;;5137833;28;20250;-87
2022/05/10 11:26:45;;;;;;;9.82;3.40;;;26.90;1.00;;;;;;5137974;28;20199;-87
2022/05/10 11:29:33;;;;;;;8.00;3.47;;;26.90;1.00;;;;;;5138222;28;20195;-85
2022/05/10 11:32:32;;;;;;;3.92;2.70;;;26.80;1.00;;;;;;5138244;28;20179;-85
2022/05/10 11:35:26;;;;;;;7.65;2.80;;;26.70;1.00;;;;;;5100876;28;20183;-85
2022/05/10 11:37:56;;;;;;;;;;;26.60;1.00;;;;;;5117141;28;20191;-84
2022/05/10 11:40:45;;;;;;;4.95;2.72;;;26.60;1.00;;;;;;5114145;28;20074;-81
2022/05/10 11:43:50;;;;;;;6.72;2.90;;;26.60;1.00;;;;;;5100692;28;20195;-82
2022/05/10 11:46:45;;;;;;;9.15;3.17;;;26.50;1.00;;;;;;5113904;28;20670;-81
2022/05/10 11:49:38;;;;;;;4.22;2.50;;;26.50;1.00;;;;;;5114117;28;20565;-82
2022/05/10 11:52:40;;;;;;;10.13;3.05;;;26.40;1.00;;;;;;5092810;28;20223;-81
2022/05/10 11:55:23;;;;;;;9.02;3.20;;;26.40;1.00;;;;;;5106799;28;20260;-83
2022/05/10 11:57:54;;;;;;;5.45;2.70;;;26.50;1.00;;;;;;5093503;28;20187;-81
2022/05/10 12:00:43;;;;;;;6.57;2.90;;;26.50;1.00;;;;;;5093425;28;20207;-81
2022/05/10 12:03:12;;;;;;;5.88;2.88;;;26.50;1.00;;;;;;5082614;28;20187;-82
2022/05/10 12:05:42;;;;;;;6.25;2.80;;;26.50;1.00;;;;;;5093333;28;20195;-82
2022/05/10 12:08:36;;;;;;;6.75;2.95;;;26.50;1.00;;;;;;5092521;28;20676;-81
2022/05/10 12:11:38;;;;;;;7.55;2.88;;;26.50;1.00;;;;;;5092933;28;20551;-83
2022/05/10 12:22:53;;;;;;;4.57;2.80;;;26.50;1.00;;;;;;5092863;28;20639;-84
2022/05/10 12:25:59;;;;;;;7.25;3.20;;;26.50;1.00;;;;;;5102654;28;20183;-82
2022/05/10 12:28:42;;;;;;;6.30;2.90;;;26.50;1.00;;;;;;5113207;28;20214;-81
2022/05/10 12:31:50;;;;;;;3.88;2.63;;;26.50;1.00;;;;;;5113317;28;20218;-83
2022/05/10 12:34:41;;;;;;;9.25;3.60;;;26.40;1.00;;;;;;5098729;28;20187;-82
2022/05/10 12:37:38;;;;;;;7.15;2.88;;;26.50;1.00;;;;;;5092831;28;20196;-84
2022/05/10 12:40:22;;;;;;;6.97;2.70;;;26.60;1.00;;;;;;5092508;28;20180;-82
2022/05/10 12:43:03;;;;;;;5.00;2.50;;;26.50;1.00;;;;;;5092918;28;20183;-82
2022/05/10 12:45:39;;;;;;;5.40;2.90;;;26.50;1.00;;;;;;5105970;28;20185;-83
2022/05/10 12:48:10;;;;;;;7.80;2.60;;;26.40;1.00;;;;;;5113175;28;20207;-83
2022/05/10 12:51:03;;;;;;;6.00;2.70;;;26.40;1.00;;;;;;5113115;28;20175;-85
2022/05/10 12:53:37;;;;;;;5.28;2.75;;;26.30;1.00;;;;;;5112404;28;20707;-83
2022/05/10 12:56:14;;;;;;;5.22;2.60;;;26.30;1.00;;;;;;5112680;28;20584;-82
2022/05/10 12:58:45;;;;;;;5.28;2.92;;;26.40;1.00;;;;;;5112579;28;20218;-84
2022/05/10 13:01:13;;;;;;;4.78;2.38;;;26.30;1.00;;;;;;5112698;28;20218;-82
2022/05/10 13:03:45;;;;;;;7.90;2.60;;;26.40;1.00;;;;;;5111661;28;20611;-84
2022/05/10 13:06:22;;;;;;;5.70;2.58;;;26.50;1.00;;;;;;5092796;28;20181;-83
2022/05/10 13:09:24;;;;;;;5.85;2.83;;;26.50;1.00;;;;;;5092439;28;20234;-85
2022/05/10 13:11:58;;;;;;;7.70;3.00;;;26.50;1.00;;;;;;5090175;28;20183;-83
2022/05/10 13:14:27;;;;;;;5.13;2.50;;;26.50;1.00;;;;;;5109754;28;20225;-85
2022/05/10 13:16:55;;;;;;;7.43;3.00;;;26.50;1.00;;;;;;5112529;28;20550;-85
2022/05/10 13:19:25;;;;;;;4.68;2.88;;;26.40;1.00;;;;;;5114477;28;20191;-85
2022/05/10 13:21:54;;;;;;;6.60;2.72;;;26.50;1.00;;;;;;5117140;28;20221;-82
2022/05/10 13:24:21;;;;;;;8.10;2.60;;;26.50;1.00;;;;;;5116525;28;20183;-85
2022/05/10 13:26:58;;;;;;;7.57;2.88;;;26.60;1.00;;;;;;5116808;28;20558;-82
2022/05/10 13:29:45;;;;;;;10.77;2.97;;;26.70;1.00;;;;;;5116683;28;20221;-84
2022/05/10 13:32:14;;;;;;;5.32;2.85;;;26.70;1.00;;;;;;5116800;28;20201;-85
2022/05/10 13:34:52;;;;;;;6.70;2.53;;;26.70;1.00;;;;;;5116656;28;20191;-82
2022/05/10 13:37:27;;;;;;;5.72;2.75;;;26.70;1.00;;;;;;5116645;28;20187;-82
2022/05/10 13:39:55;;;;;;;5.55;2.90;;;26.60;1.00;;;;;;5116782;28;20249;-85
2022/05/10 13:42:23;;;;;;;6.85;2.72;;;26.50;1.00;;;;;;5116487;28;20190;-82
2022/05/10 13:44:51;;;;;;;4.90;2.92;;;26.50;1.00;;;;;;5115886;28;20187;-83
2022/05/10 13:47:28;;;;;;;5.78;3.13;;;26.40;1.00;;;;;;5115940;28;20245;-83
2022/05/10 13:49:56;;;;;;;6.18;2.85;;;26.50;1.00;;;;;;5102908;28;20207;-82
2022/05/10 13:52:30;;;;;;;8.00;2.85;;;26.50;1.00;;;;;;5095903;28;20324;-82
2022/05/10 13:54:59;;;;;;;7.53;3.63;;;26.40;1.00;;;;;;5095780;28;20712;-82
2022/05/10 13:57:30;;;;;;;7.72;3.67;;;26.30;1.00;;;;;;5102268;28;20187;-83
2022/05/10 13:59:59;;;;;;;4.78;3.20;;;26.20;1.00;;;;;;5111650;28;20225;-83
2022/05/10 14:02:28;;;;;;;6.30;2.67;;;26.20;1.00;;;;;;5108933;28;20226;-83